logo
Rechercher aéroport 
image banner adimage banner adimage banner ad
image banner ad

KMVL - Morrisville-Stowe State

Situé à Morrisville, United States

ICAO - MVL, IATA - MVL

Données fournies par Airmate  

Information générale

Coordonnées: N44°32'4" W72°36'50"
Élévation : 732 feet MSL.
Variation magnétique : -16° East
Voir autres Aéroports à Vermont

Données opérationnelles

Special qualification required
Heure actuelle UTC:
Heure actuelle locale:
Météo
METAR: KMVL 171654Z AUTO 16005KT 10SM OVC070 22/16 A3009 RMK AO2 SLP191 T02170161
Voir NOTAMs / SUP AIP / TFR affectant cet aéroport [VIEW]
Fréquences de communication: [VIEW]

Pistes:

Identifiant RWYQFULongueur (ft)Largeur (ft)SurfaceLDA (ft)
01358°370075ASPH
19178°370075ASPH

Coordonnées de l'aéroport

Adresse: Morrisville United States

Autres services d'aviation

Écoles de pilotage

Stowe Soaring

Stowe Soaring
info@stowesoaring.com+1(802)888-7845

Vue satellite de KMVL